Time;durP1;ratioP1;P1;durP2;ratioP2;P2;SDS_P1;SDS_P2;PMS_P1;PMS_P2;Temp;Humidity;BMP_temperature;BMP_pressure;BME280_temperature;BME280_humidity;BME280_pressure;Samples;Min_cycle;Max_cycle;Signal;HPM_P1;HPM_P2
2022/06/20 00:01:53;;;;;;;6.73;4.70;;;14.90;99.90;;;;;;4403670;28;657993;-64
2022/06/20 00:04:40;;;;;;;18.63;6.00;;;14.90;99.90;;;;;;4386274;28;656912;-64
2022/06/20 00:07:27;;;;;;;7.10;4.70;;;14.90;99.90;;;;;;4405030;28;658271;-64
2022/06/20 00:10:17;;;;;;;5.73;3.93;;;15.00;99.90;;;;;;4399597;28;656693;-64
2022/06/20 00:13:04;;;;;;;10.73;4.27;;;14.90;99.90;;;;;;4400580;28;656343;-63
2022/06/20 00:15:52;;;;;;;6.77;4.53;;;15.00;99.90;;;;;;4386879;28;657763;-64
2022/06/20 00:18:40;;;;;;;4.73;4.30;;;15.00;99.90;;;;;;4401952;28;656901;-64
2022/06/20 00:21:29;;;;;;;7.53;4.17;;;15.00;99.90;;;;;;4401905;28;657484;-64
2022/06/20 00:24:16;;;;;;;9.27;3.87;;;15.10;99.90;;;;;;4385732;28;656731;-64
2022/06/20 00:27:06;;;;;;;8.47;4.03;;;15.40;99.90;;;;;;4408129;28;657439;-64
2022/06/20 00:29:53;;;;;;;8.17;3.87;;;15.90;99.90;;;;;;4386243;28;656927;-64
2022/06/20 00:32:40;;;;;;;6.53;3.87;;;16.00;99.90;;;;;;4384624;28;656630;-63
2022/06/20 00:35:28;;;;;;;13.97;4.10;;;16.00;99.90;;;;;;4402944;28;656998;-64
2022/06/20 00:38:17;;;;;;;11.00;4.37;;;15.90;99.90;;;;;;4399253;28;657482;-64
2022/06/20 00:41:06;;;;;;;8.87;3.80;;;15.90;99.90;;;;;;4404467;28;657615;-64
2022/06/20 00:43:55;;;;;;;4.70;3.67;;;16.40;99.90;;;;;;4382876;28;656925;-64
2022/06/20 00:46:43;;;;;;;9.40;3.87;;;15.80;99.90;;;;;;4387124;28;656469;-64
2022/06/20 00:49:32;;;;;;;7.03;4.00;;;15.90;99.90;;;;;;4385858;28;657141;-64
2022/06/20 00:52:23;;;;;;;5.87;4.27;;;15.90;99.90;;;;;;4403255;28;656635;-64
2022/06/20 00:55:13;;;;;;;8.93;3.70;;;15.70;99.90;;;;;;4375413;28;656594;-64
2022/06/20 00:58:03;;;;;;;9.33;4.00;;;16.40;99.90;;;;;;4386406;28;656669;-64
2022/06/20 01:00:51;;;;;;;9.37;4.17;;;16.20;99.90;;;;;;4392575;28;656722;-64
2022/06/20 01:03:40;;;;;;;7.67;3.97;;;15.80;99.90;;;;;;4404095;28;656783;-64
2022/06/20 01:06:29;;;;;;;4.97;4.07;;;15.80;99.90;;;;;;4385952;28;658540;-64
2022/06/20 01:09:16;;;;;;;5.70;3.80;;;15.60;99.90;;;;;;4383428;28;656763;-64
2022/06/20 01:12:04;;;;;;;9.17;4.00;;;15.50;99.90;;;;;;4412960;28;656716;-64
2022/06/20 01:14:51;;;;;;;7.63;4.00;;;15.70;99.90;;;;;;4390924;28;656455;-64
2022/06/20 01:17:39;;;;;;;6.43;3.93;;;15.40;99.90;;;;;;4406471;28;656343;-63
2022/06/20 01:20:28;;;;;;;8.90;3.97;;;15.50;99.90;;;;;;4384938;28;656709;-64
2022/06/20 01:23:22;;;;;;;9.17;4.00;;;15.50;99.90;;;;;;4398362;28;656531;-64
2022/06/20 01:26:29;;;;;;;6.70;4.00;;;15.50;99.90;;;;;;4380233;28;656628;-63
2022/06/20 01:29:17;;;;;;;9.50;4.23;;;15.30;99.90;;;;;;4362650;28;656837;-64
2022/06/20 01:32:06;;;;;;;10.53;4.07;;;15.30;99.90;;;;;;4400796;28;656695;-64
2022/06/20 01:34:53;;;;;;;7.73;4.30;;;15.00;99.90;;;;;;4406586;28;657835;-64
2022/06/20 01:37:40;;;;;;;8.10;4.57;;;15.10;99.90;;;;;;4395421;28;657086;-65
2022/06/20 01:40:27;;;;;;;10.67;4.50;;;15.20;99.90;;;;;;4411273;28;656512;-64
2022/06/20 01:43:14;;;;;;;12.03;4.47;;;15.00;99.90;;;;;;4404374;28;657985;-65
2022/06/20 01:46:09;;;;;;;6.90;4.63;;;14.80;99.90;;;;;;4409533;28;657610;-64
2022/06/20 01:48:59;;;;;;;7.13;4.57;;;14.90;99.90;;;;;;4359846;28;656694;-64
2022/06/20 01:51:49;;;;;;;11.50;4.90;;;15.00;99.90;;;;;;4387936;28;656456;-64
2022/06/20 01:54:40;;;;;;;9.18;3.90;;;15.20;99.90;;;;;;4387351;28;657530;-64
2022/06/20 01:57:28;;;;;;;9.13;4.63;;;15.20;99.90;;;;;;4386270;28;657546;-64
2022/06/20 02:00:17;;;;;;;12.17;5.03;;;15.20;99.90;;;;;;4388522;28;656665;-64
2022/06/20 02:03:08;;;;;;;9.27;4.63;;;15.30;99.90;;;;;;4401015;28;657239;-64
2022/06/20 02:05:56;;;;;;;9.20;4.40;;;15.30;99.90;;;;;;4369743;28;656790;-64
2022/06/20 02:08:43;;;;;;;11.47;4.70;;;14.90;99.90;;;;;;4402342;28;657701;-64
2022/06/20 02:11:32;;;;;;;11.80;4.83;;;15.00;99.90;;;;;;4384102;28;658281;-64
2022/06/20 02:14:22;;;;;;;11.47;4.60;;;15.00;99.90;;;;;;4405598;28;657485;-64
2022/06/20 02:17:12;;;;;;;9.70;5.03;;;15.20;99.90;;;;;;4384028;28;658360;-64
2022/06/20 02:20:02;;;;;;;7.80;5.17;;;14.90;99.90;;;;;;4381013;28;656512;-65
2022/06/20 02:22:50;;;;;;;13.20;4.83;;;14.80;99.90;;;;;;4387075;28;657021;-64
2022/06/20 02:25:37;;;;;;;7.33;4.77;;;14.90;99.90;;;;;;4385903;28;658193;-64
2022/06/20 02:28:27;;;;;;;6.97;5.00;;;14.90;99.90;;;;;;4398659;28;656780;-64
2022/06/20 02:31:14;;;;;;;7.07;4.90;;;14.90;99.90;;;;;;4380140;28;656319;-64
2022/06/20 02:34:01;;;;;;;10.37;4.63;;;14.90;99.90;;;;;;4388169;28;656410;-65
2022/06/20 02:36:50;;;;;;;7.50;4.63;;;14.90;99.90;;;;;;4409082;28;658248;-64
2022/06/20 02:39:38;;;;;;;8.60;4.70;;;14.80;99.90;;;;;;4382932;28;657948;-64
2022/06/20 02:42:31;;;;;;;10.03;5.10;;;14.80;99.90;;;;;;4398695;28;656713;-64
2022/06/20 02:45:18;;;;;;;10.53;5.27;;;14.90;99.90;;;;;;4381496;28;658787;-64
2022/06/20 02:48:06;;;;;;;6.97;4.33;;;14.80;99.90;;;;;;4386117;28;658192;-64
2022/06/20 02:50:55;;;;;;;9.10;5.00;;;14.50;99.90;;;;;;4408166;28;657260;-64
2022/06/20 02:53:45;;;;;;;8.73;5.00;;;14.60;99.90;;;;;;4382413;28;657629;-64
2022/06/20 02:56:34;;;;;;;10.67;4.70;;;14.70;99.90;;;;;;4384934;28;657208;-64
2022/06/20 02:59:23;;;;;;;7.40;4.87;;;14.70;99.90;;;;;;4383481;28;657751;-64
2022/06/20 03:02:11;;;;;;;6.83;4.90;;;14.60;99.90;;;;;;4385697;28;656398;-65
2022/06/20 03:04:58;;;;;;;9.33;4.73;;;14.70;99.90;;;;;;4406864;28;657458;-64
2022/06/20 03:07:45;;;;;;;7.13;4.67;;;14.80;99.90;;;;;;4391440;28;656858;-64
2022/06/20 03:10:36;;;;;;;7.83;4.60;;;14.50;99.90;;;;;;4408702;28;657544;-65
2022/06/20 03:13:23;;;;;;;10.50;4.93;;;14.70;99.90;;;;;;4383943;28;657976;-64
2022/06/20 03:16:10;;;;;;;9.53;5.23;;;14.90;99.90;;;;;;4384337;28;658320;-65
2022/06/20 03:18:58;;;;;;;9.60;4.40;;;15.00;99.90;;;;;;4409983;28;657080;-64
2022/06/20 03:21:45;;;;;;;8.77;5.03;;;14.90;99.90;;;;;;4391498;28;657053;-64
2022/06/20 03:24:32;;;;;;;12.50;4.67;;;14.80;99.90;;;;;;4408539;28;657051;-65
2022/06/20 03:27:24;;;;;;;9.60;4.83;;;15.00;99.90;;;;;;4404608;28;657656;-65
2022/06/20 03:30:33;;;;;;;9.40;4.70;;;15.20;99.90;;;;;;4384480;28;656325;-65
2022/06/20 03:33:21;;;;;;;9.30;4.75;;;15.40;99.90;;;;;;4384421;28;657057;-65
2022/06/20 03:36:13;;;;;;;10.73;4.30;;;15.50;99.90;;;;;;4404331;28;656903;-64
2022/06/20 03:39:00;;;;;;;6.70;4.20;;;15.50;99.90;;;;;;4373628;28;657926;-65
2022/06/20 03:41:47;;;;;;;8.20;4.25;;;15.70;99.90;;;;;;4409479;28;657407;-65
2022/06/20 03:44:38;;;;;;;6.13;4.13;;;15.80;99.90;;;;;;4402331;28;656434;-65
2022/06/20 03:47:26;;;;;;;11.83;4.47;;;15.90;99.90;;;;;;4396779;28;656689;-65
2022/06/20 03:50:16;;;;;;;5.50;4.10;;;16.20;99.90;;;;;;4402729;28;658082;-65
2022/06/20 03:53:06;;;;;;;8.07;4.43;;;16.40;99.90;;;;;;4383298;28;657475;-64
2022/06/20 03:55:56;;;;;;;5.97;3.93;;;16.60;99.90;;;;;;4383368;28;657620;-65
2022/06/20 03:58:45;;;;;;;6.17;3.93;;;16.60;99.90;;;;;;4379718;28;657841;-64
2022/06/20 04:01:35;;;;;;;10.27;4.00;;;16.70;99.90;;;;;;4379928;28;657795;-65
2022/06/20 04:04:25;;;;;;;7.37;3.80;;;16.80;99.90;;;;;;4379820;28;658037;-64
2022/06/20 04:07:13;;;;;;;6.63;3.43;;;16.90;99.90;;;;;;4385000;28;657191;-64
2022/06/20 04:13:09;;;;;;;5.43;4.13;;;17.30;99.90;;;;;;4363432;28;656705;-65
2022/06/20 04:15:58;;;;;;;7.03;4.03;;;17.50;99.90;;;;;;4382439;28;657120;-65
2022/06/20 04:18:49;;;;;;;6.63;3.97;;;17.50;99.90;;;;;;4383672;28;656735;-65
2022/06/20 04:21:38;;;;;;;11.47;4.33;;;17.50;99.90;;;;;;4382420;28;656524;-65
2022/06/20 04:24:28;;;;;;;7.30;3.60;;;17.60;99.90;;;;;;4384526;28;657512;-65
2022/06/20 04:27:18;;;;;;;7.83;3.70;;;17.80;99.90;;;;;;4387117;28;657368;-65
2022/06/20 04:30:07;;;;;;;5.97;3.43;;;17.90;99.90;;;;;;4382582;28;656527;-65
2022/06/20 04:32:56;;;;;;;5.40;3.27;;;18.20;99.90;;;;;;4403695;28;658003;-65
2022/06/20 04:35:57;;;;;;;5.20;3.20;;;18.60;99.90;;;;;;4380751;28;657680;-65
2022/06/20 04:38:45;;;;;;;6.53;3.80;;;18.90;99.90;;;;;;4379887;28;657048;-65
2022/06/20 04:41:36;;;;;;;8.27;3.77;;;19.10;99.90;;;;;;4378979;28;657499;-65
2022/06/20 04:44:26;;;;;;;5.93;3.67;;;19.30;99.90;;;;;;4380572;28;657541;-65
2022/06/20 04:47:20;;;;;;;9.20;3.47;;;19.20;99.90;;;;;;4379294;28;657198;-65
2022/06/20 04:50:07;;;;;;;9.50;3.60;;;19.30;99.90;;;;;;4357004;28;656946;-65
2022/06/20 04:52:59;;;;;;;7.63;2.87;;;19.40;99.90;;;;;;4408308;28;657419;-65
2022/06/20 04:55:49;;;;;;;11.90;3.67;;;19.70;99.90;;;;;;4377643;28;657264;-65
2022/06/20 04:58:44;;;;;;;7.60;2.90;;;19.90;99.90;;;;;;4382238;28;657870;-65
2022/06/20 05:01:33;;;;;;;9.43;2.60;;;20.20;99.90;;;;;;4362759;28;656879;-65
2022/06/20 05:04:26;;;;;;;6.07;2.93;;;20.50;99.90;;;;;;4385463;28;656851;-65
2022/06/20 05:07:15;;;;;;;4.67;2.53;;;20.70;99.90;;;;;;4381052;28;656580;-65
2022/06/20 05:10:07;;;;;;;6.17;2.60;;;20.60;99.90;;;;;;4381430;28;657422;-65
2022/06/20 05:12:56;;;;;;;4.93;2.70;;;20.90;99.90;;;;;;4382485;28;656510;-64
2022/06/20 05:15:44;;;;;;;4.67;2.77;;;21.00;99.90;;;;;;4379930;28;656751;-65
2022/06/20 05:18:33;;;;;;;4.70;2.73;;;21.10;99.90;;;;;;4380986;28;657006;-65
2022/06/20 05:21:22;;;;;;;3.90;2.53;;;21.30;94.50;;;;;;4394951;28;657414;-65
2022/06/20 05:24:11;;;;;;;2.53;2.20;;;21.50;97.80;;;;;;4402931;28;656683;-65
2022/06/20 05:27:00;;;;;;;5.07;2.83;;;21.50;99.90;;;;;;4379237;28;657185;-65
2022/06/20 05:29:47;;;;;;;4.60;2.57;;;21.70;98.40;;;;;;4379041;28;657480;-65
2022/06/20 05:32:37;;;;;;;4.37;2.60;;;21.80;95.60;;;;;;4397743;28;657365;-65
2022/06/20 05:35:25;;;;;;;5.80;2.40;;;21.80;98.50;;;;;;4402856;28;656513;-65
2022/06/20 05:38:15;;;;;;;5.83;2.40;;;21.90;95.30;;;;;;4382377;28;657784;-65
2022/06/20 05:41:04;;;;;;;6.43;2.63;;;21.90;94.30;;;;;;4386717;28;656795;-65
2022/06/20 05:43:52;;;;;;;7.47;2.70;;;22.00;95.00;;;;;;4383814;28;657294;-65
2022/06/20 05:46:41;;;;;;;12.30;2.70;;;22.10;96.90;;;;;;4402823;28;657253;-65
2022/06/20 05:49:30;;;;;;;6.23;2.70;;;22.20;95.10;;;;;;4384230;28;658637;-65
2022/06/20 05:52:19;;;;;;;4.07;2.53;;;22.30;90.90;;;;;;4383890;28;657475;-65
2022/06/20 05:55:10;;;;;;;4.63;2.60;;;22.40;93.00;;;;;;4387185;28;657382;-65
2022/06/20 05:57:57;;;;;;;4.73;2.60;;;22.40;92.70;;;;;;4387369;28;657492;-65
2022/06/20 06:00:46;;;;;;;4.77;2.73;;;22.50;88.90;;;;;;4407477;28;656623;-65
2022/06/20 06:03:35;;;;;;;7.97;2.80;;;22.50;92.70;;;;;;4381257;28;656918;-65
2022/06/20 06:06:24;;;;;;;7.87;2.70;;;22.70;90.50;;;;;;4394219;28;656760;-65
2022/06/20 06:09:13;;;;;;;10.40;2.90;;;22.80;92.20;;;;;;4393363;28;656721;-65
2022/06/20 06:12:02;;;;;;;6.20;2.33;;;22.80;92.30;;;;;;4392902;28;657649;-65
2022/06/20 06:14:51;;;;;;;9.83;2.70;;;23.00;91.20;;;;;;4412435;28;656778;-65
2022/06/20 06:17:41;;;;;;;8.43;2.83;;;23.10;88.70;;;;;;4380988;28;656761;-65
2022/06/20 06:20:29;;;;;;;6.63;2.77;;;23.30;86.90;;;;;;4393460;28;656842;-65
2022/06/20 06:23:16;;;;;;;6.47;2.60;;;23.30;89.40;;;;;;4394167;28;656474;-66
2022/06/20 06:26:04;;;;;;;5.57;2.60;;;23.40;86.20;;;;;;4412794;28;656744;-65
2022/06/20 06:28:51;;;;;;;7.00;2.83;;;23.40;85.00;;;;;;4394358;28;656171;-65
2022/06/20 06:31:40;;;;;;;6.67;2.40;;;23.40;82.90;;;;;;4416397;28;656780;-65
2022/06/20 06:34:32;;;;;;;6.33;2.63;;;23.40;82.30;;;;;;4393116;28;657115;-65
2022/06/20 06:37:22;;;;;;;8.90;2.73;;;23.50;84.20;;;;;;4385854;28;656435;-65
2022/06/20 06:40:13;;;;;;;6.70;2.70;;;23.40;79.30;;;;;;4412299;28;656559;-65
2022/06/20 06:43:00;;;;;;;5.73;2.50;;;23.60;82.40;;;;;;4382680;28;656686;-65
2022/06/20 06:45:49;;;;;;;4.57;2.40;;;23.80;79.60;;;;;;4412708;28;657758;-65
2022/06/20 06:48:40;;;;;;;4.63;2.43;;;23.90;80.20;;;;;;4390785;28;656591;-65
2022/06/20 06:51:32;;;;;;;3.90;2.53;;;24.00;80.70;;;;;;4390622;28;656884;-65
2022/06/20 06:54:21;;;;;;;12.57;2.70;;;24.00;79.30;;;;;;4389434;28;656467;-65
2022/06/20 06:57:11;;;;;;;3.73;2.43;;;24.30;78.20;;;;;;4388425;28;658072;-65
2022/06/20 07:00:15;;;;;;;7.90;2.60;;;24.30;76.10;;;;;;4389211;28;656621;-65
2022/06/20 07:03:05;;;;;;;6.23;2.70;;;24.30;77.30;;;;;;4393719;28;656895;-65
2022/06/20 07:05:54;;;;;;;8.57;2.80;;;24.40;78.70;;;;;;4389463;28;657272;-65
2022/06/20 07:08:44;;;;;;;5.87;2.87;;;24.30;72.20;;;;;;4392001;28;656302;-66
2022/06/20 07:11:31;;;;;;;6.83;2.40;;;24.30;75.60;;;;;;4392228;28;657035;-65
2022/06/20 07:14:19;;;;;;;9.03;2.60;;;24.50;73.40;;;;;;4411963;28;657922;-65
2022/06/20 07:17:11;;;;;;;8.57;2.55;;;24.80;74.60;;;;;;4393213;28;657419;-66
2022/06/20 07:20:00;;;;;;;7.03;3.10;;;24.70;71.20;;;;;;4387120;28;657102;-65
2022/06/20 07:22:48;;;;;;;5.03;2.50;;;24.80;71.20;;;;;;4379893;28;657484;-66
2022/06/20 07:25:40;;;;;;;7.22;2.85;;;24.90;72.20;;;;;;4388939;28;657906;-66
2022/06/20 07:28:37;;;;;;;3.78;2.70;;;24.80;73.40;;;;;;4382805;28;658309;-66
2022/06/20 07:31:25;;;;;;;4.88;2.60;;;25.00;71.70;;;;;;4375976;28;656630;-66
2022/06/20 07:34:15;;;;;;;11.20;2.60;;;25.10;71.80;;;;;;4378377;28;657862;-66
2022/06/20 07:37:05;;;;;;;6.45;2.90;;;25.30;73.70;;;;;;4375130;28;657503;-66
2022/06/20 07:39:56;;;;;;;8.50;2.92;;;25.10;70.30;;;;;;4383413;28;657551;-66
2022/06/20 07:42:48;;;;;;;6.90;2.83;;;25.20;72.10;;;;;;4381122;28;656463;-66
2022/06/20 07:45:37;;;;;;;9.32;3.03;;;25.60;73.30;;;;;;4393220;28;657035;-66
2022/06/20 07:48:28;;;;;;;4.43;2.83;;;25.80;71.70;;;;;;4398936;28;656576;-66
2022/06/20 07:51:17;;;;;;;3.83;2.75;;;25.50;68.20;;;;;;4400988;28;656861;-66
2022/06/20 07:54:07;;;;;;;7.63;3.20;;;25.50;67.10;;;;;;4400073;28;656758;-66
2022/06/20 07:56:58;;;;;;;9.18;2.90;;;25.80;68.30;;;;;;4398021;28;656892;-66
2022/06/20 07:59:50;;;;;;;7.32;2.80;;;26.00;69.70;;;;;;4373788;28;656655;-66
2022/06/20 08:02:39;;;;;;;5.13;2.83;;;26.00;68.60;;;;;;4378591;28;657361;-66
2022/06/20 08:05:27;;;;;;;6.32;3.20;;;26.20;71.10;;;;;;4380615;28;656689;-65
2022/06/20 08:08:17;;;;;;;7.30;2.90;;;26.10;72.40;;;;;;4397688;28;656998;-66
2022/06/20 08:11:06;;;;;;;10.63;3.10;;;26.50;66.60;;;;;;4379131;28;656711;-66
2022/06/20 08:13:54;;;;;;;4.18;2.75;;;26.20;64.10;;;;;;4375146;28;658340;-66
2022/06/20 08:16:42;;;;;;;5.95;3.17;;;26.50;71.50;;;;;;4386382;28;656684;-66
2022/06/20 08:19:29;;;;;;;7.55;2.88;;;26.70;66.60;;;;;;4404912;28;657163;-66
2022/06/20 08:22:18;;;;;;;6.80;2.88;;;27.20;66.30;;;;;;4381943;28;656804;-66
2022/06/20 08:25:08;;;;;;;7.07;3.00;;;27.20;64.00;;;;;;4387381;28;657860;-66
2022/06/20 08:27:57;;;;;;;7.63;3.00;;;27.40;66.50;;;;;;4380803;28;656953;-66
2022/06/20 08:30:48;;;;;;;4.30;2.50;;;27.60;63.60;;;;;;4392860;28;657269;-65
2022/06/20 08:33:41;;;;;;;7.70;2.70;;;27.70;64.40;;;;;;4362940;28;656922;-66
2022/06/20 08:36:30;;;;;;;5.28;2.60;;;27.10;59.70;;;;;;4381409;28;657524;-65
2022/06/20 08:39:19;;;;;;;10.30;3.00;;;27.20;59.20;;;;;;4383966;28;657135;-66
2022/06/20 08:42:41;;;;;;;8.05;3.15;;;27.00;59.90;;;;;;4380056;28;657734;-66
2022/06/20 08:45:50;;;;;;;8.23;2.75;;;27.50;62.10;;;;;;4334458;28;656541;-66
2022/06/20 08:49:09;;;;;;;9.65;3.13;;;27.70;62.80;;;;;;4359361;28;657200;-66
2022/06/20 08:52:21;;;;;;;7.60;3.00;;;28.20;59.80;;;;;;4354403;28;657985;-66
2022/06/20 08:55:33;;;;;;;6.60;2.50;;;28.20;64.50;;;;;;4380689;28;657398;-66
2022/06/20 08:58:26;;;;;;;7.63;3.08;;;28.40;60.10;;;;;;4365735;28;657421;-66
2022/06/20 09:01:17;;;;;;;6.15;2.75;;;28.20;59.60;;;;;;4382859;28;656828;-66
2022/06/20 09:04:14;;;;;;;5.60;2.88;;;28.40;56.60;;;;;;4386404;28;656417;-66
2022/06/20 09:07:37;;;;;;;5.63;2.55;;;28.20;55.30;;;;;;4383313;28;656436;-66
2022/06/20 09:10:40;;;;;;;5.18;2.40;;;28.50;59.70;;;;;;4382361;28;657985;-66
2022/06/20 09:13:55;;;;;;;10.35;2.70;;;28.80;58.70;;;;;;4377082;28;657039;-66
2022/06/20 09:16:48;;;;;;;6.68;2.55;;;29.30;67.90;;;;;;4346469;28;658251;-66
2022/06/20 09:19:54;;;;;;;5.05;2.78;;;28.70;57.20;;;;;;4378145;28;656574;-66
2022/06/20 09:22:52;;;;;;;6.35;2.40;;;28.90;60.00;;;;;;4385451;28;657211;-66
2022/06/20 09:25:47;;;;;;;7.20;2.70;;;29.20;55.00;;;;;;4375749;28;656594;-65
2022/06/20 09:28:50;;;;;;;4.72;2.53;;;28.90;56.80;;;;;;4376403;28;658633;-66
2022/06/20 09:32:05;;;;;;;6.03;2.72;;;29.30;63.00;;;;;;4383466;28;656963;-66
2022/06/20 09:35:18;;;;;;;5.80;2.42;;;29.60;57.70;;;;;;4383633;28;656655;-66
2022/06/20 09:38:19;;;;;;;7.55;2.20;;;29.40;56.00;;;;;;4377238;28;656344;-66
2022/06/20 09:41:09;;;;;;;9.40;2.30;;;30.20;57.70;;;;;;4359532;28;657516;-66
2022/06/20 09:44:10;;;;;;;7.32;2.00;;;29.70;51.90;;;;;;4383124;28;656821;-66
2022/06/20 09:47:02;;;;;;;8.07;2.45;;;29.50;52.50;;;;;;4360614;28;657268;-66
2022/06/20 09:49:53;;;;;;;8.82;2.63;;;29.50;52.70;;;;;;4382179;28;657813;-66
2022/06/20 09:52:53;;;;;;;4.28;2.28;;;29.70;51.70;;;;;;4373033;28;657102;-66
2022/06/20 09:55:45;;;;;;;7.80;2.60;;;29.60;49.50;;;;;;4361395;28;656399;-66
2022/06/20 09:58:37;;;;;;;5.85;2.40;;;30.30;54.30;;;;;;4378013;28;657246;-66
2022/06/20 10:01:28;;;;;;;6.25;2.50;;;30.20;57.40;;;;;;4374160;28;656685;-66
2022/06/20 10:04:25;;;;;;;7.18;2.38;;;30.50;51.00;;;;;;4354046;28;656270;-66
2022/06/20 10:07:15;;;;;;;5.00;2.43;;;30.60;50.70;;;;;;4358579;28;657917;-66
2022/06/20 10:10:07;;;;;;;12.65;3.00;;;30.70;52.30;;;;;;4376611;28;656974;-66
2022/06/20 10:12:57;;;;;;;6.20;2.50;;;30.80;51.80;;;;;;4389759;28;657938;-66
2022/06/20 10:15:46;;;;;;;5.63;2.27;;;30.90;52.40;;;;;;4392326;28;656740;-66
2022/06/20 10:18:36;;;;;;;4.93;2.50;;;30.80;53.20;;;;;;4378092;28;657772;-66
2022/06/20 10:21:26;;;;;;;7.13;2.47;;;31.00;55.00;;;;;;4383097;28;656824;-66
2022/06/20 10:24:31;;;;;;;10.03;2.40;;;30.70;48.30;;;;;;4379125;28;657410;-66
2022/06/20 10:27:45;;;;;;;8.90;2.40;;;31.10;52.20;;;;;;4379355;28;658444;-66
2022/06/20 10:30:38;;;;;;;5.13;2.27;;;30.90;52.90;;;;;;4361659;28;656827;-66
2022/06/20 10:33:34;;;;;;;3.97;2.30;;;31.50;53.20;;;;;;4382895;28;656402;-66
2022/06/20 10:36:24;;;;;;;10.30;2.67;;;32.30;51.50;;;;;;4359247;28;656883;-66
2022/06/20 10:39:12;;;;;;;15.13;2.80;;;31.60;48.20;;;;;;4385159;28;658274;-65
2022/06/20 10:42:07;;;;;;;15.18;2.50;;;31.90;48.30;;;;;;4397609;28;657962;-65
2022/06/20 10:45:08;;;;;;;5.25;2.70;;;32.00;48.50;;;;;;4372887;28;659548;-65
2022/06/20 10:48:30;;;;;;;8.15;2.35;;;31.90;49.40;;;;;;4400243;28;656770;-65
2022/06/20 10:51:22;;;;;;;7.90;2.83;;;31.50;47.40;;;;;;4357453;28;657132;-65
2022/06/20 10:54:16;;;;;;;5.15;2.30;;;31.60;55.30;;;;;;4378424;28;656901;-65
2022/06/20 10:57:08;;;;;;;9.95;2.90;;;31.90;54.40;;;;;;4380834;28;656507;-65
2022/06/20 11:00:02;;;;;;;4.88;2.10;;;32.00;51.60;;;;;;4376876;28;656469;-65
2022/06/20 11:03:11;;;;;;;5.40;2.40;;;31.70;48.20;;;;;;4386781;28;657141;-65
2022/06/20 11:06:01;;;;;;;7.45;2.25;;;31.40;50.10;;;;;;4373599;28;656686;-64
2022/06/20 11:08:53;;;;;;;9.93;2.78;;;31.70;52.20;;;;;;4384082;28;657515;-64
2022/06/20 11:11:43;;;;;;;8.45;2.50;;;31.70;47.80;;;;;;4361919;28;657014;-65
2022/06/20 11:14:34;;;;;;;6.57;2.70;;;31.10;48.90;;;;;;4386316;28;656985;-65
2022/06/20 11:17:28;;;;;;;9.18;2.80;;;31.60;50.30;;;;;;4377573;28;658600;-65
2022/06/20 11:20:19;;;;;;;10.68;2.80;;;32.60;49.50;;;;;;4360304;28;656718;-65
2022/06/20 11:23:12;;;;;;;9.80;2.60;;;33.20;51.90;;;;;;4382386;28;657499;-65
2022/06/20 11:26:02;;;;;;;8.20;2.72;;;32.80;49.10;;;;;;4383410;28;656436;-65
2022/06/20 11:28:57;;;;;;;9.00;3.13;;;33.00;51.30;;;;;;4377622;28;656803;-65
2022/06/20 11:31:50;;;;;;;7.43;2.70;;;32.10;48.60;;;;;;4401005;28;658165;-65
2022/06/20 11:35:10;;;;;;;10.73;2.67;;;32.30;51.10;;;;;;4379765;28;657869;-64
2022/06/20 11:38:15;;;;;;;8.47;2.67;;;32.00;51.40;;;;;;4350327;28;658941;-65
2022/06/20 11:41:05;;;;;;;4.70;2.30;;;32.60;50.90;;;;;;4354632;28;656972;-65
2022/06/20 11:44:33;;;;;;;9.50;2.80;;;32.90;51.20;;;;;;4379446;28;657759;-65
2022/06/20 11:47:49;;;;;;;6.68;3.10;;;33.30;51.40;;;;;;4355387;28;657343;-65
2022/06/20 11:50:39;;;;;;;7.85;2.83;;;32.40;53.10;;;;;;4357253;28;656956;-65
2022/06/20 11:53:38;;;;;;;9.57;2.67;;;32.40;51.40;;;;;;4381751;28;657253;-65
2022/06/20 11:56:27;;;;;;;8.30;2.95;;;32.00;55.40;;;;;;4364962;28;656709;-65
2022/06/20 11:59:22;;;;;;;7.72;2.65;;;31.80;51.70;;;;;;4405577;28;656339;-64
2022/06/20 12:02:39;;;;;;;11.07;2.60;;;30.40;51.10;;;;;;4378808;28;656680;-63
2022/06/20 12:05:36;;;;;;;13.60;3.13;;;29.30;52.80;;;;;;4345371;28;658378;-63
2022/06/20 12:08:32;;;;;;;3.67;2.38;;;28.80;54.50;;;;;;4377944;28;658403;-64
2022/06/20 12:11:40;;;;;;;7.68;3.20;;;28.40;55.90;;;;;;4381040;28;656413;-63
2022/06/20 12:14:31;;;;;;;13.73;3.08;;;27.80;56.50;;;;;;4380106;28;656482;-64
2022/06/20 12:17:24;;;;;;;15.65;3.42;;;27.70;56.10;;;;;;4373926;28;657756;-64
2022/06/20 12:23:31;;;;;;;24.27;2.42;;;27.30;54.00;;;;;;4373535;28;658277;-63
2022/06/20 12:26:21;;;;;;;10.70;1.83;;;27.00;54.80;;;;;;4378466;28;658402;-66
2022/06/20 12:29:14;;;;;;;16.23;1.90;;;27.00;54.20;;;;;;4375233;28;659623;-63
2022/06/20 12:32:01;;;;;;;8.00;1.60;;;27.10;55.10;;;;;;4357206;28;659111;-64
2022/06/20 12:34:53;;;;;;;13.95;1.88;;;26.90;55.00;;;;;;4401066;28;657281;-64
2022/06/20 12:37:42;;;;;;;8.63;1.50;;;26.80;55.80;;;;;;4362259;28;657803;-64
2022/06/20 12:40:36;;;;;;;17.33;2.05;;;26.70;56.80;;;;;;4409439;28;656123;-64
2022/06/20 12:43:27;;;;;;;17.38;1.92;;;26.60;56.70;;;;;;4371530;28;658041;-64
2022/06/20 12:46:28;;;;;;;11.95;1.88;;;26.80;58.10;;;;;;4381508;28;658132;-64
2022/06/20 12:49:33;;;;;;;8.57;1.80;;;26.90;57.30;;;;;;4361429;28;657470;-64
2022/06/20 12:52:23;;;;;;;7.50;1.90;;;26.80;58.30;;;;;;4376623;28;656913;-64
2022/06/20 12:55:16;;;;;;;6.72;2.03;;;27.20;59.40;;;;;;4386985;28;656686;-64
2022/06/20 12:58:15;;;;;;;5.95;2.20;;;27.20;58.30;;;;;;4376253;28;657411;-64
2022/06/20 13:01:05;;;;;;;9.57;2.40;;;27.20;58.80;;;;;;4350581;28;656714;-64
2022/06/20 13:04:05;;;;;;;17.98;3.13;;;26.90;58.90;;;;;;4390076;28;656943;-64
2022/06/20 13:07:03;;;;;;;6.32;2.17;;;26.90;59.40;;;;;;4376531;28;657692;-65
2022/06/20 13:10:05;;;;;;;9.48;2.20;;;27.20;59.70;;;;;;4358226;28;657004;-65
2022/06/20 13:13:16;;;;;;;7.45;2.30;;;27.30;59.40;;;;;;4382122;28;656999;-64
2022/06/20 13:16:09;;;;;;;10.02;2.83;;;26.90;58.60;;;;;;4375401;28;657453;-65
2022/06/20 13:19:12;;;;;;;6.40;2.15;;;26.70;59.80;;;;;;4365117;28;658889;-65
2022/06/20 13:22:03;;;;;;;7.03;2.30;;;26.60;59.70;;;;;;4404910;28;656388;-65
2022/06/20 13:24:58;;;;;;;4.25;2.08;;;26.90;63.20;;;;;;4389178;28;656228;-64
2022/06/20 13:27:48;;;;;;;5.13;1.95;;;26.70;62.20;;;;;;4371521;28;656315;-65
2022/06/20 13:30:50;;;;;;;5.88;1.75;;;26.80;60.70;;;;;;4380508;28;656972;-65
2022/06/20 13:33:41;;;;;;;3.67;1.65;;;27.20;61.50;;;;;;4385168;28;656405;-65
2022/06/20 13:36:31;;;;;;;8.25;1.80;;;27.20;59.80;;;;;;4390891;28;656595;-65
2022/06/20 13:39:22;;;;;;;3.83;1.67;;;26.80;60.70;;;;;;4384672;28;656569;-65
2022/06/20 13:42:21;;;;;;;4.95;1.85;;;26.70;60.80;;;;;;4374603;28;656696;-64
2022/06/20 13:45:11;;;;;;;9.93;1.73;;;26.70;62.90;;;;;;4386630;28;657317;-65
2022/06/20 13:48:02;;;;;;;5.93;1.63;;;26.50;63.30;;;;;;4377617;28;657146;-64
2022/06/20 13:50:52;;;;;;;6.55;1.92;;;26.30;64.70;;;;;;4397694;28;656566;-64
2022/06/20 13:53:44;;;;;;;4.35;1.80;;;26.20;65.40;;;;;;4411258;28;656981;-64
2022/06/20 13:56:32;;;;;;;6.65;1.65;;;25.90;65.70;;;;;;4381834;28;656223;-64
2022/06/20 13:59:21;;;;;;;6.43;1.73;;;25.70;65.50;;;;;;4408847;28;656435;-64
2022/06/20 14:02:29;;;;;;;8.77;2.35;;;25.30;66.40;;;;;;4379559;28;657220;-64
2022/06/20 14:05:18;;;;;;;7.97;2.47;;;24.80;68.60;;;;;;4381723;28;656398;-64
2022/06/20 14:08:07;;;;;;;11.33;2.50;;;24.40;70.20;;;;;;4383881;28;656523;-64
2022/06/20 14:10:55;;;;;;;11.20;3.27;;;23.40;88.40;;;;;;4402510;28;657742;-63
2022/06/20 14:13:46;;;;;;;7.73;2.73;;;22.60;99.90;;;;;;4382153;28;659710;-62
2022/06/20 14:16:35;;;;;;;18.00;3.53;;;21.80;99.90;;;;;;4381286;28;657876;-63
2022/06/20 14:19:24;;;;;;;10.23;3.70;;;21.30;99.90;;;;;;4384463;28;659490;-62
2022/06/20 14:22:22;;;;;;;13.60;4.40;;;20.60;99.90;;;;;;4386228;28;657851;-65
2022/06/20 14:25:31;;;;;;;20.53;5.17;;;19.60;99.90;;;;;;4379297;28;658130;-70
2022/06/20 14:28:21;;;;;;;21.17;5.80;;;18.90;99.90;;;;;;4376421;28;658287;-71
2022/06/20 14:31:16;;;;;;;13.80;4.87;;;18.60;99.90;;;;;;4383268;28;657625;-69
2022/06/20 14:34:04;;;;;;;23.67;5.70;;;18.60;99.90;;;;;;4379828;28;658590;-69
2022/06/20 14:36:55;;;;;;;13.17;4.73;;;18.60;99.90;;;;;;4384157;28;657572;-68
2022/06/20 14:39:45;;;;;;;14.63;5.00;;;18.60;99.90;;;;;;4374662;28;659367;-70
2022/06/20 14:42:36;;;;;;;17.97;6.07;;;18.50;99.90;;;;;;4378393;28;658331;-71
2022/06/20 14:45:27;;;;;;;20.93;6.47;;;18.60;99.90;;;;;;4377621;28;658952;-70
2022/06/20 14:48:18;;;;;;;17.53;6.13;;;18.60;99.90;;;;;;4384538;28;657747;-71
2022/06/20 14:51:07;;;;;;;13.13;5.37;;;18.50;99.90;;;;;;4381946;28;657519;-70